sensor_id;sensor_type;location;lat;lon;timestamp;P1;durP1;ratioP1;P2;durP2;ratioP2
36253;SDS011;22291;52.250;21.228;2023-08-24T00:01:26;76.28;;;71.67;;
36253;SDS011;22291;52.250;21.228;2023-08-24T00:03:52;76.95;;;72.15;;
36253;SDS011;22291;52.250;21.228;2023-08-24T00:06:18;77.37;;;72.45;;
36253;SDS011;22291;52.250;21.228;2023-08-24T00:08:45;79.05;;;74.15;;
36253;SDS011;22291;52.250;21.228;2023-08-24T00:11:11;76.97;;;72.25;;
36253;SDS011;22291;52.250;21.228;2023-08-24T00:13:41;79.15;;;74.15;;
36253;SDS011;22291;52.250;21.228;2023-08-24T00:18:36;77.22;;;72.30;;
36253;SDS011;22291;52.250;21.228;2023-08-24T00:21:02;78.72;;;73.40;;
36253;SDS011;22291;52.250;21.228;2023-08-24T00:23:28;76.57;;;71.82;;
36253;SDS011;22291;52.250;21.228;2023-08-24T00:25:54;77.87;;;72.80;;
36253;SDS011;22291;52.250;21.228;2023-08-24T00:28:21;76.37;;;71.53;;
36253;SDS011;22291;52.250;21.228;2023-08-24T00:30:47;79.30;;;74.20;;
36253;SDS011;22291;52.250;21.228;2023-08-24T00:33:13;77.25;;;72.35;;
36253;SDS011;22291;52.250;21.228;2023-08-24T00:35:39;80.03;;;75.05;;
36253;SDS011;22291;52.250;21.228;2023-08-24T00:38:05;78.55;;;73.60;;
36253;SDS011;22291;52.250;21.228;2023-08-24T00:40:31;77.78;;;72.75;;
36253;SDS011;22291;52.250;21.228;2023-08-24T00:42:58;77.27;;;72.32;;
36253;SDS011;22291;52.250;21.228;2023-08-24T00:45:24;76.75;;;71.95;;
36253;SDS011;22291;52.250;21.228;2023-08-24T00:47:51;80.15;;;75.00;;
36253;SDS011;22291;52.250;21.228;2023-08-24T00:50:18;76.97;;;72.12;;
36253;SDS011;22291;52.250;21.228;2023-08-24T00:52:45;77.87;;;73.00;;
36253;SDS011;22291;52.250;21.228;2023-08-24T00:55:13;77.78;;;72.82;;
36253;SDS011;22291;52.250;21.228;2023-08-24T00:57:40;78.70;;;73.40;;
36253;SDS011;22291;52.250;21.228;2023-08-24T01:00:08;78.22;;;73.33;;
36253;SDS011;22291;52.250;21.228;2023-08-24T01:02:40;77.20;;;72.30;;
36253;SDS011;22291;52.250;21.228;2023-08-24T01:05:05;77.58;;;72.87;;
36253;SDS011;22291;52.250;21.228;2023-08-24T01:07:33;78.17;;;72.85;;
36253;SDS011;22291;52.250;21.228;2023-08-24T01:10:02;77.90;;;72.65;;
36253;SDS011;22291;52.250;21.228;2023-08-24T01:12:52;81.57;;;76.07;;
36253;SDS011;22291;52.250;21.228;2023-08-24T01:15:37;79.32;;;73.67;;
36253;SDS011;22291;52.250;21.228;2023-08-24T01:18:23;77.12;;;72.03;;
36253;SDS011;22291;52.250;21.228;2023-08-24T01:20:54;76.62;;;71.77;;
36253;SDS011;22291;52.250;21.228;2023-08-24T01:23:32;79.00;;;74.03;;
36253;SDS011;22291;52.250;21.228;2023-08-24T01:26:17;77.80;;;72.80;;
36253;SDS011;22291;52.250;21.228;2023-08-24T01:28:46;78.37;;;73.50;;
36253;SDS011;22291;52.250;21.228;2023-08-24T01:31:13;77.08;;;72.12;;
36253;SDS011;22291;52.250;21.228;2023-08-24T01:33:44;78.72;;;72.87;;
36253;SDS011;22291;52.250;21.228;2023-08-24T01:36:12;78.30;;;72.62;;
36253;SDS011;22291;52.250;21.228;2023-08-24T01:38:42;79.03;;;74.00;;
36253;SDS011;22291;52.250;21.228;2023-08-24T01:41:12;78.02;;;73.05;;
36253;SDS011;22291;52.250;21.228;2023-08-24T01:43:52;79.00;;;74.00;;
36253;SDS011;22291;52.250;21.228;2023-08-24T01:46:20;77.82;;;72.67;;
36253;SDS011;22291;52.250;21.228;2023-08-24T01:48:48;79.72;;;74.72;;
36253;SDS011;22291;52.250;21.228;2023-08-24T01:51:15;77.25;;;72.05;;
36253;SDS011;22291;52.250;21.228;2023-08-24T01:53:42;77.97;;;72.97;;
36253;SDS011;22291;52.250;21.228;2023-08-24T01:56:14;78.60;;;73.30;;
36253;SDS011;22291;52.250;21.228;2023-08-24T01:58:42;79.65;;;74.55;;
36253;SDS011;22291;52.250;21.228;2023-08-24T02:01:09;78.00;;;73.10;;
36253;SDS011;22291;52.250;21.228;2023-08-24T02:03:38;79.25;;;74.25;;
36253;SDS011;22291;52.250;21.228;2023-08-24T02:06:05;75.20;;;70.47;;
36253;SDS011;22291;52.250;21.228;2023-08-24T02:08:32;79.17;;;74.25;;
36253;SDS011;22291;52.250;21.228;2023-08-24T02:10:59;77.42;;;72.35;;
36253;SDS011;22291;52.250;21.228;2023-08-24T02:13:25;77.12;;;72.25;;
36253;SDS011;22291;52.250;21.228;2023-08-24T02:16:00;80.60;;;75.42;;
36253;SDS011;22291;52.250;21.228;2023-08-24T02:18:30;76.40;;;71.70;;
36253;SDS011;22291;52.250;21.228;2023-08-24T02:20:56;78.52;;;73.33;;
36253;SDS011;22291;52.250;21.228;2023-08-24T02:23:23;78.28;;;73.07;;
36253;SDS011;22291;52.250;21.228;2023-08-24T02:25:49;77.78;;;72.78;;
36253;SDS011;22291;52.250;21.228;2023-08-24T02:28:15;78.30;;;73.28;;
36253;SDS011;22291;52.250;21.228;2023-08-24T02:30:41;77.58;;;72.65;;
36253;SDS011;22291;52.250;21.228;2023-08-24T02:33:07;77.85;;;72.75;;
36253;SDS011;22291;52.250;21.228;2023-08-24T02:35:33;77.42;;;72.27;;
36253;SDS011;22291;52.250;21.228;2023-08-24T02:38:00;77.00;;;72.30;;
36253;SDS011;22291;52.250;21.228;2023-08-24T02:40:26;76.77;;;72.12;;
36253;SDS011;22291;52.250;21.228;2023-08-24T02:42:52;8.20;;;7.25;;
36253;SDS011;22291;52.250;21.228;2023-08-24T02:45:18;78.12;;;73.33;;
36253;SDS011;22291;52.250;21.228;2023-08-24T02:47:44;79.67;;;74.40;;
36253;SDS011;22291;52.250;21.228;2023-08-24T02:50:10;77.78;;;72.60;;
36253;SDS011;22291;52.250;21.228;2023-08-24T02:52:37;78.80;;;73.83;;
36253;SDS011;22291;52.250;21.228;2023-08-24T02:55:03;76.67;;;71.97;;
36253;SDS011;22291;52.250;21.228;2023-08-24T02:57:31;80.38;;;74.97;;
36253;SDS011;22291;52.250;21.228;2023-08-24T02:59:57;77.20;;;72.40;;
36253;SDS011;22291;52.250;21.228;2023-08-24T03:02:23;79.65;;;74.55;;
36253;SDS011;22291;52.250;21.228;2023-08-24T03:04:49;78.60;;;73.65;;
36253;SDS011;22291;52.250;21.228;2023-08-24T03:07:16;80.87;;;75.57;;
36253;SDS011;22291;52.250;21.228;2023-08-24T03:09:42;81.50;;;76.50;;
36253;SDS011;22291;52.250;21.228;2023-08-24T03:12:08;76.70;;;71.85;;
36253;SDS011;22291;52.250;21.228;2023-08-24T03:14:34;78.28;;;73.17;;
36253;SDS011;22291;52.250;21.228;2023-08-24T03:17:00;78.92;;;73.67;;
36253;SDS011;22291;52.250;21.228;2023-08-24T03:19:28;79.30;;;73.85;;
36253;SDS011;22291;52.250;21.228;2023-08-24T03:21:55;77.50;;;72.67;;
36253;SDS011;22291;52.250;21.228;2023-08-24T03:24:21;76.90;;;71.92;;
36253;SDS011;22291;52.250;21.228;2023-08-24T03:26:47;80.32;;;75.22;;
36253;SDS011;22291;52.250;21.228;2023-08-24T03:29:13;78.83;;;73.47;;
36253;SDS011;22291;52.250;21.228;2023-08-24T03:31:39;81.42;;;76.00;;
36253;SDS011;22291;52.250;21.228;2023-08-24T03:34:05;81.25;;;75.72;;
36253;SDS011;22291;52.250;21.228;2023-08-24T03:36:31;77.00;;;72.25;;
36253;SDS011;22291;52.250;21.228;2023-08-24T03:38:58;79.90;;;74.70;;
36253;SDS011;22291;52.250;21.228;2023-08-24T03:41:24;76.25;;;70.97;;
36253;SDS011;22291;52.250;21.228;2023-08-24T03:43:50;79.37;;;74.37;;
36253;SDS011;22291;52.250;21.228;2023-08-24T03:46:16;79.58;;;74.17;;
36253;SDS011;22291;52.250;21.228;2023-08-24T03:48:43;81.47;;;76.37;;
36253;SDS011;22291;52.250;21.228;2023-08-24T03:51:09;78.05;;;72.82;;
36253;SDS011;22291;52.250;21.228;2023-08-24T03:53:35;80.97;;;75.72;;
36253;SDS011;22291;52.250;21.228;2023-08-24T03:56:01;80.38;;;75.08;;
36253;SDS011;22291;52.250;21.228;2023-08-24T03:58:28;77.80;;;72.62;;
36253;SDS011;22291;52.250;21.228;2023-08-24T04:00:54;78.33;;;73.30;;
36253;SDS011;22291;52.250;21.228;2023-08-24T04:03:21;77.05;;;72.10;;
36253;SDS011;22291;52.250;21.228;2023-08-24T04:05:47;81.37;;;76.22;;
36253;SDS011;22291;52.250;21.228;2023-08-24T04:08:13;79.07;;;73.97;;
36253;SDS011;22291;52.250;21.228;2023-08-24T04:10:39;80.17;;;75.00;;
36253;SDS011;22291;52.250;21.228;2023-08-24T04:13:05;79.95;;;74.85;;
36253;SDS011;22291;52.250;21.228;2023-08-24T04:15:31;83.80;;;78.33;;
36253;SDS011;22291;52.250;21.228;2023-08-24T04:17:58;81.78;;;76.22;;
36253;SDS011;22291;52.250;21.228;2023-08-24T04:20:24;78.75;;;73.62;;
36253;SDS011;22291;52.250;21.228;2023-08-24T04:22:50;81.17;;;75.62;;
36253;SDS011;22291;52.250;21.228;2023-08-24T04:25:17;78.07;;;72.97;;
36253;SDS011;22291;52.250;21.228;2023-08-24T04:27:44;82.35;;;76.67;;
36253;SDS011;22291;52.250;21.228;2023-08-24T04:30:10;79.32;;;74.35;;
36253;SDS011;22291;52.250;21.228;2023-08-24T04:32:39;82.02;;;76.62;;
36253;SDS011;22291;52.250;21.228;2023-08-24T04:35:06;79.70;;;74.25;;
36253;SDS011;22291;52.250;21.228;2023-08-24T04:37:34;79.05;;;73.85;;
36253;SDS011;22291;52.250;21.228;2023-08-24T04:40:00;78.60;;;73.33;;
36253;SDS011;22291;52.250;21.228;2023-08-24T04:42:27;51.10;;;47.58;;
36253;SDS011;22291;52.250;21.228;2023-08-24T04:44:53;10.58;;;6.50;;
36253;SDS011;22291;52.250;21.228;2023-08-24T04:47:20;8.35;;;6.20;;
36253;SDS011;22291;52.250;21.228;2023-08-24T04:49:46;20.17;;;18.67;;
36253;SDS011;22291;52.250;21.228;2023-08-24T04:52:12;17.52;;;15.93;;
36253;SDS011;22291;52.250;21.228;2023-08-24T04:54:39;81.87;;;76.75;;
36253;SDS011;22291;52.250;21.228;2023-08-24T04:57:06;80.28;;;75.28;;
36253;SDS011;22291;52.250;21.228;2023-08-24T04:59:32;80.47;;;75.40;;
36253;SDS011;22291;52.250;21.228;2023-08-24T05:01:58;78.37;;;73.17;;
36253;SDS011;22291;52.250;21.228;2023-08-24T05:04:24;79.53;;;74.35;;
36253;SDS011;22291;52.250;21.228;2023-08-24T05:06:50;81.35;;;76.22;;
36253;SDS011;22291;52.250;21.228;2023-08-24T05:09:17;76.42;;;71.28;;
36253;SDS011;22291;52.250;21.228;2023-08-24T05:11:43;80.45;;;75.35;;
36253;SDS011;22291;52.250;21.228;2023-08-24T05:14:09;79.40;;;74.27;;
36253;SDS011;22291;52.250;21.228;2023-08-24T05:16:36;78.45;;;73.40;;
36253;SDS011;22291;52.250;21.228;2023-08-24T05:19:02;79.05;;;73.87;;
36253;SDS011;22291;52.250;21.228;2023-08-24T05:21:28;79.50;;;74.40;;
36253;SDS011;22291;52.250;21.228;2023-08-24T05:23:55;79.95;;;74.95;;
36253;SDS011;22291;52.250;21.228;2023-08-24T05:26:21;78.78;;;73.78;;
36253;SDS011;22291;52.250;21.228;2023-08-24T05:28:52;82.22;;;77.15;;
36253;SDS011;22291;52.250;21.228;2023-08-24T05:31:19;79.25;;;74.22;;
36253;SDS011;22291;52.250;21.228;2023-08-24T05:33:45;79.12;;;74.03;;
36253;SDS011;22291;52.250;21.228;2023-08-24T05:36:11;79.80;;;74.77;;
36253;SDS011;22291;52.250;21.228;2023-08-24T05:38:38;76.75;;;71.80;;
36253;SDS011;22291;52.250;21.228;2023-08-24T05:41:04;75.85;;;71.12;;
36253;SDS011;22291;52.250;21.228;2023-08-24T05:43:30;77.65;;;72.62;;
36253;SDS011;22291;52.250;21.228;2023-08-24T05:45:56;75.70;;;70.85;;
36253;SDS011;22291;52.250;21.228;2023-08-24T05:48:23;76.50;;;71.62;;
36253;SDS011;22291;52.250;21.228;2023-08-24T05:50:49;79.65;;;74.75;;
36253;SDS011;22291;52.250;21.228;2023-08-24T05:53:15;77.15;;;72.15;;
36253;SDS011;22291;52.250;21.228;2023-08-24T05:55:41;77.25;;;72.55;;
36253;SDS011;22291;52.250;21.228;2023-08-24T05:58:07;76.00;;;71.20;;
36253;SDS011;22291;52.250;21.228;2023-08-24T06:00:35;74.85;;;70.22;;
36253;SDS011;22291;52.250;21.228;2023-08-24T06:03:01;76.50;;;71.70;;
36253;SDS011;22291;52.250;21.228;2023-08-24T06:05:29;75.12;;;70.42;;
36253;SDS011;22291;52.250;21.228;2023-08-24T06:07:57;75.40;;;70.47;;
36253;SDS011;22291;52.250;21.228;2023-08-24T06:10:23;74.15;;;69.60;;
36253;SDS011;22291;52.250;21.228;2023-08-24T06:12:51;76.00;;;71.20;;
36253;SDS011;22291;52.250;21.228;2023-08-24T06:15:18;74.62;;;70.12;;
36253;SDS011;22291;52.250;21.228;2023-08-24T06:17:44;76.50;;;71.70;;
36253;SDS011;22291;52.250;21.228;2023-08-24T06:20:13;74.05;;;69.53;;
36253;SDS011;22291;52.250;21.228;2023-08-24T06:22:39;72.65;;;68.25;;
36253;SDS011;22291;52.250;21.228;2023-08-24T06:25:05;73.65;;;68.78;;
36253;SDS011;22291;52.250;21.228;2023-08-24T06:27:34;72.85;;;68.42;;
36253;SDS011;22291;52.250;21.228;2023-08-24T06:30:01;72.32;;;68.00;;
36253;SDS011;22291;52.250;21.228;2023-08-24T06:32:29;72.90;;;68.45;;
36253;SDS011;22291;52.250;21.228;2023-08-24T06:34:55;71.80;;;67.42;;
36253;SDS011;22291;52.250;21.228;2023-08-24T06:37:21;71.25;;;66.65;;
36253;SDS011;22291;52.250;21.228;2023-08-24T06:39:48;70.72;;;66.28;;
36253;SDS011;22291;52.250;21.228;2023-08-24T06:42:14;70.95;;;66.55;;
36253;SDS011;22291;52.250;21.228;2023-08-24T06:44:40;69.45;;;64.62;;
36253;SDS011;22291;52.250;21.228;2023-08-24T06:47:06;72.08;;;67.37;;
36253;SDS011;22291;52.250;21.228;2023-08-24T06:49:32;71.55;;;67.35;;
36253;SDS011;22291;52.250;21.228;2023-08-24T06:51:58;71.37;;;65.92;;
36253;SDS011;22291;52.250;21.228;2023-08-24T06:54:24;66.60;;;62.78;;
36253;SDS011;22291;52.250;21.228;2023-08-24T06:56:50;68.57;;;64.12;;
36253;SDS011;22291;52.250;21.228;2023-08-24T06:59:17;69.30;;;65.30;;
36253;SDS011;22291;52.250;21.228;2023-08-24T07:01:43;68.30;;;63.50;;
36253;SDS011;22291;52.250;21.228;2023-08-24T07:04:10;68.05;;;63.55;;
36253;SDS011;22291;52.250;21.228;2023-08-24T07:06:36;69.12;;;64.75;;
36253;SDS011;22291;52.250;21.228;2023-08-24T07:09:02;69.07;;;64.85;;
36253;SDS011;22291;52.250;21.228;2023-08-24T07:11:31;67.92;;;63.60;;
36253;SDS011;22291;52.250;21.228;2023-08-24T07:13:57;66.07;;;61.95;;
36253;SDS011;22291;52.250;21.228;2023-08-24T07:16:23;66.92;;;62.93;;
36253;SDS011;22291;52.250;21.228;2023-08-24T07:18:50;67.15;;;63.17;;
36253;SDS011;22291;52.250;21.228;2023-08-24T07:21:16;64.62;;;60.95;;
36253;SDS011;22291;52.250;21.228;2023-08-24T07:23:43;65.67;;;61.95;;
36253;SDS011;22291;52.250;21.228;2023-08-24T07:26:10;65.37;;;61.45;;
36253;SDS011;22291;52.250;21.228;2023-08-24T07:28:38;64.27;;;60.48;;
36253;SDS011;22291;52.250;21.228;2023-08-24T07:31:08;64.62;;;60.73;;
36253;SDS011;22291;52.250;21.228;2023-08-24T07:33:38;63.63;;;59.83;;
36253;SDS011;22291;52.250;21.228;2023-08-24T07:36:05;63.58;;;60.08;;
36253;SDS011;22291;52.250;21.228;2023-08-24T07:38:33;63.13;;;59.42;;
36253;SDS011;22291;52.250;21.228;2023-08-24T07:40:59;65.70;;;61.90;;
36253;SDS011;22291;52.250;21.228;2023-08-24T07:43:25;64.03;;;60.17;;
36253;SDS011;22291;52.250;21.228;2023-08-24T07:45:52;63.35;;;59.77;;
36253;SDS011;22291;52.250;21.228;2023-08-24T07:48:18;64.62;;;60.95;;
36253;SDS011;22291;52.250;21.228;2023-08-24T07:50:45;63.28;;;59.70;;
36253;SDS011;22291;52.250;21.228;2023-08-24T07:53:11;62.95;;;59.10;;
36253;SDS011;22291;52.250;21.228;2023-08-24T07:55:37;78.72;;;73.45;;
36253;SDS011;22291;52.250;21.228;2023-08-24T08:00:28;7.07;;;6.77;;
36253;SDS011;22291;52.250;21.228;2023-08-24T09:40:25;62.20;;;58.65;;
36253;SDS011;22291;52.250;21.228;2023-08-24T09:42:53;61.53;;;57.90;;
36253;SDS011;22291;52.250;21.228;2023-08-24T09:45:22;62.38;;;59.05;;
36253;SDS011;22291;52.250;21.228;2023-08-24T09:47:49;63.02;;;59.20;;
36253;SDS011;22291;52.250;21.228;2023-08-24T09:50:20;62.17;;;58.75;;
36253;SDS011;22291;52.250;21.228;2023-08-24T09:52:51;62.08;;;58.80;;
36253;SDS011;22291;52.250;21.228;2023-08-24T09:55:20;60.95;;;57.78;;
36253;SDS011;22291;52.250;21.228;2023-08-24T09:57:52;62.15;;;58.75;;
36253;SDS011;22291;52.250;21.228;2023-08-24T10:00:23;60.88;;;57.48;;
36253;SDS011;22291;52.250;21.228;2023-08-24T10:02:54;61.23;;;57.93;;
36253;SDS011;22291;52.250;21.228;2023-08-24T10:05:25;61.45;;;58.13;;
36253;SDS011;22291;52.250;21.228;2023-08-24T10:07:56;61.02;;;57.73;;
36253;SDS011;22291;52.250;21.228;2023-08-24T10:10:25;61.90;;;58.55;;
36253;SDS011;22291;52.250;21.228;2023-08-24T10:13:03;61.77;;;58.50;;
36253;SDS011;22291;52.250;21.228;2023-08-24T10:15:31;60.65;;;57.45;;
36253;SDS011;22291;52.250;21.228;2023-08-24T10:18:03;61.15;;;57.75;;
36253;SDS011;22291;52.250;21.228;2023-08-24T10:20:34;60.03;;;56.53;;
36253;SDS011;22291;52.250;21.228;2023-08-24T10:23:05;5.37;;;5.12;;
